createdAt,value
2019-06-01T00:00:31.710Z,7.80
2019-06-01T00:03:01.001Z,6.70
2019-06-01T00:05:30.319Z,6.00
2019-06-01T00:07:59.525Z,4.70
2019-06-01T00:10:28.665Z,8.10
2019-06-01T00:12:58.509Z,6.67
2019-06-01T00:15:27.648Z,6.13
2019-06-01T00:17:56.907Z,7.53
2019-06-01T00:20:26.192Z,11.17
2019-06-01T00:22:55.373Z,7.67
2019-06-01T00:25:24.575Z,10.10
2019-06-01T00:27:53.795Z,10.90
2019-06-01T00:30:27.098Z,10.00
2019-06-01T00:32:53.938Z,9.93
2019-06-01T00:35:23.034Z,13.97
2019-06-01T00:37:52.215Z,11.20
2019-06-01T00:40:21.379Z,9.47
2019-06-01T00:42:50.569Z,9.73
2019-06-01T00:45:19.777Z,12.60
2019-06-01T00:47:49.030Z,8.50
2019-06-01T00:50:19.092Z,9.40
2019-06-01T00:52:49.274Z,9.10
2019-06-01T00:55:18.518Z,10.23
2019-06-01T00:57:47.647Z,11.83
2019-06-01T01:00:16.834Z,13.13
2019-06-01T01:02:46.004Z,10.50
2019-06-01T01:05:17.427Z,11.63
2019-06-01T01:07:46.695Z,10.10
2019-06-01T01:10:18.170Z,7.37
2019-06-01T01:13:04.968Z,11.83
2019-06-01T01:15:36.079Z,10.63
2019-06-01T01:18:06.837Z,8.20
2019-06-01T01:20:37.075Z,9.80
2019-06-01T01:23:06.736Z,10.17
2019-06-01T01:25:35.985Z,9.70
2019-06-01T01:28:05.321Z,11.13
2019-06-01T01:30:34.641Z,13.53
2019-06-01T01:33:03.783Z,9.60
2019-06-01T01:35:32.947Z,9.87
2019-06-01T01:38:02.084Z,9.53
2019-06-01T01:40:32.038Z,7.37
2019-06-01T01:43:01.228Z,8.93
2019-06-01T01:45:30.527Z,11.47
2019-06-01T01:47:59.690Z,11.43
2019-06-01T01:50:28.929Z,8.33
2019-06-01T01:52:58.970Z,10.23
2019-06-01T01:55:28.434Z,10.33
2019-06-01T01:57:57.681Z,13.27
2019-06-01T02:00:47.486Z,10.43
2019-06-01T02:03:16.664Z,10.47
2019-06-01T02:05:45.804Z,11.37
2019-06-01T02:08:15.102Z,10.27
2019-06-01T02:10:44.253Z,8.67
2019-06-01T02:13:13.483Z,8.63
2019-06-01T02:15:43.835Z,11.90
2019-06-01T02:18:12.997Z,11.50
2019-06-01T02:20:42.200Z,9.80
2019-06-01T02:23:11.450Z,11.77
2019-06-01T02:25:40.710Z,8.97
2019-06-01T02:28:09.913Z,12.77
2019-06-01T02:30:39.172Z,10.07
2019-06-01T02:33:08.407Z,10.73
2019-06-01T02:35:37.622Z,15.40
2019-06-01T02:38:06.760Z,11.73
2019-06-01T02:40:36.378Z,9.43
2019-06-01T02:43:06.672Z,12.83
2019-06-01T02:45:37.165Z,11.97
2019-06-01T02:48:06.994Z,10.10
2019-06-01T02:50:36.508Z,12.10
2019-06-01T02:53:05.935Z,11.50
2019-06-01T02:55:35.183Z,11.07
2019-06-01T02:58:04.916Z,8.87
2019-06-01T03:01:12.074Z,12.33
2019-06-01T03:03:42.543Z,9.33
2019-06-01T03:06:15.643Z,10.80
2019-06-01T03:08:48.013Z,15.17
2019-06-01T03:11:20.370Z,11.87
2019-06-01T03:13:52.771Z,12.93
2019-06-01T03:16:25.237Z,9.40
2019-06-01T03:18:57.477Z,8.87
2019-06-01T03:21:30.362Z,10.50
2019-06-01T03:24:05.987Z,8.47
2019-06-01T03:26:43.726Z,10.20
2019-06-01T03:29:19.233Z,11.37
2019-06-01T03:31:48.486Z,10.27
2019-06-01T03:34:17.713Z,10.03
2019-06-01T03:36:46.939Z,10.23
2019-06-01T03:39:16.082Z,7.17
2019-06-01T03:41:45.248Z,9.93
2019-06-01T03:44:14.512Z,15.67
2019-06-01T03:46:43.736Z,11.77
2019-06-01T03:49:12.913Z,9.40
2019-06-01T03:51:42.129Z,10.33
2019-06-01T03:54:11.296Z,9.67
2019-06-01T03:56:40.528Z,16.60
2019-06-01T03:59:10.973Z,13.00
2019-06-01T04:01:40.773Z,12.60
2019-06-01T04:04:11.191Z,12.23
2019-06-01T04:06:40.933Z,10.20
2019-06-01T04:09:10.182Z,9.77
2019-06-01T04:11:39.373Z,11.27
2019-06-01T04:14:09.674Z,9.53
2019-06-01T04:16:42.278Z,12.13
2019-06-01T04:19:12.235Z,11.97
2019-06-01T04:21:42.377Z,12.10
2019-06-01T04:24:12.347Z,10.07
2019-06-01T04:26:41.873Z,10.37
2019-06-01T04:29:12.424Z,10.27
2019-06-01T04:31:42.327Z,11.07
2019-06-01T04:34:11.481Z,10.77
2019-06-01T04:36:40.733Z,10.13
2019-06-01T04:39:09.908Z,8.33
2019-06-01T04:41:39.091Z,11.33
2019-06-01T04:44:08.335Z,10.03
2019-06-01T04:46:37.561Z,10.10
2019-06-01T04:49:06.746Z,8.07
2019-06-01T04:51:35.974Z,9.17
2019-06-01T04:54:05.155Z,7.73
2019-06-01T04:56:34.397Z,10.60
2019-06-01T04:59:04.817Z,9.53
2019-06-01T05:01:34.217Z,9.47
2019-06-01T05:04:03.479Z,10.07
2019-06-01T05:06:32.753Z,8.87
2019-06-01T05:09:02.858Z,7.20
2019-06-01T05:11:32.109Z,6.80
2019-06-01T05:14:42.866Z,9.07
2019-06-01T05:17:13.414Z,9.00
2019-06-01T05:19:43.343Z,10.27
2019-06-01T05:22:12.727Z,9.40
2019-06-01T05:24:42.042Z,8.10
2019-06-01T05:27:11.322Z,7.80
2019-06-01T05:29:40.687Z,7.57
2019-06-01T05:32:10.448Z,9.07
2019-06-01T05:34:39.924Z,8.70
2019-06-01T05:37:10.733Z,5.20
2019-06-01T05:39:40.020Z,8.60
2019-06-01T05:42:10.410Z,6.07
2019-06-01T05:44:40.269Z,8.73
2019-06-01T05:47:10.062Z,6.50
2019-06-01T05:49:39.376Z,4.40
2019-06-01T05:52:08.579Z,10.70
2019-06-01T05:54:37.806Z,6.13
2019-06-01T05:57:07.026Z,3.87
2019-06-01T05:59:36.190Z,6.33
2019-06-01T06:02:05.357Z,7.17
2019-06-01T06:04:34.494Z,7.67
2019-06-01T06:07:03.690Z,8.07
2019-06-01T06:09:32.854Z,4.53
2019-06-01T06:12:02.099Z,5.03
2019-06-01T06:14:31.340Z,8.83
2019-06-01T06:17:00.506Z,6.90
2019-06-01T06:19:29.649Z,6.57
2019-06-01T06:21:58.772Z,6.47
2019-06-01T06:24:27.963Z,5.30
2019-06-01T06:26:57.100Z,7.10
2019-06-01T06:29:26.295Z,5.57
2019-06-01T06:31:55.480Z,9.30
2019-06-01T06:34:24.675Z,8.23
2019-06-01T06:36:53.864Z,8.60
2019-06-01T06:39:24.111Z,6.27
2019-06-01T06:41:53.584Z,6.53
2019-06-01T06:44:22.844Z,9.27
2019-06-01T06:46:52.022Z,7.37
2019-06-01T06:49:21.415Z,6.63
2019-06-01T06:51:51.433Z,9.77
2019-06-01T06:54:21.805Z,5.37
2019-06-01T06:56:51.430Z,8.00
2019-06-01T06:59:20.670Z,9.30
2019-06-01T07:01:49.864Z,6.90
2019-06-01T07:04:19.339Z,6.10
2019-06-01T07:06:48.748Z,6.10
2019-06-01T07:09:18.036Z,4.87
2019-06-01T07:11:47.223Z,8.67
2019-06-01T07:14:16.923Z,8.00
2019-06-01T07:16:46.121Z,7.93
2019-06-01T07:19:15.490Z,9.97
2019-06-01T07:21:44.666Z,10.20
2019-06-01T07:24:13.783Z,15.07
2019-06-01T07:26:43.080Z,6.70
2019-06-01T07:29:12.235Z,7.17
2019-06-01T07:31:41.913Z,8.13
2019-06-01T07:34:11.061Z,10.10
2019-06-01T07:36:40.280Z,7.17
2019-06-01T07:39:09.462Z,7.07
2019-06-01T07:41:38.597Z,7.43
2019-06-01T07:44:07.790Z,8.87
2019-06-01T07:46:36.948Z,8.47
2019-06-01T07:49:06.187Z,6.90
2019-06-01T07:51:35.355Z,7.70
2019-06-01T07:54:05.338Z,7.77
2019-06-01T07:56:34.564Z,7.43
2019-06-01T07:59:03.809Z,8.23
2019-06-01T08:01:33.148Z,8.30
2019-06-01T08:04:02.346Z,9.33
2019-06-01T08:06:32.703Z,7.20
2019-06-01T08:09:02.548Z,8.70
2019-06-01T08:11:34.926Z,7.47
2019-06-01T08:14:03.308Z,10.03
2019-06-01T08:16:32.550Z,11.53
2019-06-01T08:19:01.704Z,9.67
2019-06-01T08:21:32.270Z,11.80
2019-06-01T08:24:02.076Z,7.33
2019-06-01T08:26:32.694Z,10.53
2019-06-01T08:29:01.940Z,9.17
2019-06-01T08:31:32.265Z,9.37
2019-06-01T08:34:02.505Z,9.83
2019-06-01T08:36:31.811Z,9.90
2019-06-01T08:39:00.976Z,14.50
2019-06-01T08:41:31.521Z,10.23
2019-06-01T08:44:01.059Z,10.27
2019-06-01T08:46:31.731Z,11.30
2019-06-01T08:49:01.239Z,9.20
2019-06-01T08:51:55.180Z,7.87
2019-06-01T08:58:37.877Z,12.50
2019-06-01T09:01:11.171Z,5.90
2019-06-01T09:03:46.294Z,7.63
2019-06-01T09:06:11.817Z,8.57
2019-06-01T09:08:54.479Z,7.07
2019-06-01T09:11:25.073Z,8.80
2019-06-01T09:17:46.112Z,9.47
2019-06-01T09:20:16.107Z,6.57
2019-06-01T09:22:48.022Z,8.37
2019-06-01T09:25:16.439Z,7.03
2019-06-01T09:27:45.639Z,8.30
2019-06-01T09:30:15.753Z,6.27
2019-06-01T09:32:44.991Z,9.30
2019-06-01T09:35:14.137Z,5.83
2019-06-01T09:37:45.774Z,5.57
2019-06-01T09:40:15.598Z,6.33
2019-06-01T09:42:44.802Z,5.67
2019-06-01T09:45:14.130Z,7.07
2019-06-01T09:47:43.513Z,6.60
2019-06-01T09:50:12.960Z,6.30
2019-06-01T09:52:42.176Z,6.47
2019-06-01T09:55:11.534Z,8.08
2019-06-01T09:57:40.725Z,7.85
2019-06-01T10:00:10.501Z,8.18
2019-06-01T10:02:39.863Z,7.45
2019-06-01T10:05:09.031Z,6.67
2019-06-01T10:07:39.395Z,6.12
2019-06-01T10:10:08.824Z,6.40
2019-06-01T10:12:38.543Z,5.03
2019-06-01T10:15:07.998Z,5.37
2019-06-01T10:17:37.225Z,9.45
2019-06-01T10:20:06.498Z,8.25
2019-06-01T10:22:37.058Z,6.30
2019-06-01T10:25:07.875Z,4.60
2019-06-01T10:27:38.527Z,5.08
2019-06-01T10:30:10.437Z,6.72
2019-06-01T10:32:39.993Z,4.72
2019-06-01T10:35:10.843Z,5.03
2019-06-01T10:37:40.089Z,5.50
2019-06-01T10:40:10.660Z,3.20
2019-06-01T10:42:39.960Z,2.72
2019-06-01T10:45:21.070Z,3.42
2019-06-01T10:47:47.958Z,2.85
2019-06-01T10:50:17.697Z,3.90
2019-06-01T10:52:47.038Z,2.42
2019-06-01T10:55:16.177Z,4.15
2019-06-01T10:57:45.432Z,4.55
2019-06-01T11:00:15.156Z,1.85
2019-06-01T11:02:44.346Z,3.12
2019-06-01T11:05:14.364Z,3.92
2019-06-01T11:07:43.599Z,3.17
2019-06-01T11:10:40.969Z,4.37
2019-06-01T11:13:14.435Z,3.55
2019-06-01T11:15:43.672Z,8.20
2019-06-01T11:18:12.868Z,3.60
2019-06-01T11:20:42.044Z,4.17
2019-06-01T11:23:11.214Z,4.55
2019-06-01T11:25:41.563Z,2.83
2019-06-01T11:28:11.021Z,2.42
2019-06-01T11:30:40.169Z,4.03
2019-06-01T11:33:09.380Z,4.70
2019-06-01T11:35:39.212Z,6.45
2019-06-01T11:42:52.677Z,8.85
2019-06-01T11:45:24.187Z,5.87
2019-06-01T11:47:53.332Z,6.45
2019-06-01T11:50:22.589Z,8.65
2019-06-01T11:52:51.889Z,5.30
2019-06-01T11:55:21.184Z,6.75
2019-06-01T11:57:50.325Z,7.65
2019-06-01T12:00:20.665Z,5.62
2019-06-01T12:02:49.840Z,4.62
2019-06-01T12:05:19.808Z,9.03
2019-06-01T12:07:48.959Z,6.17
2019-06-01T12:10:18.155Z,5.95
2019-06-01T12:12:47.291Z,4.92
2019-06-01T12:15:17.800Z,5.37
2019-06-01T12:17:47.344Z,4.08
2019-06-01T12:20:18.467Z,2.90
2019-06-01T12:22:48.397Z,4.30
2019-06-01T12:25:17.592Z,2.90
2019-06-01T12:27:46.817Z,5.55
2019-06-01T12:30:18.029Z,2.52
2019-06-01T12:32:48.738Z,4.58
2019-06-01T12:35:18.833Z,3.30
2019-06-01T12:38:22.296Z,4.87
2019-06-01T12:40:20.159Z,3.80
2019-06-01T12:42:49.324Z,6.45
2019-06-01T12:45:23.263Z,6.33
2019-06-01T12:47:57.997Z,4.85
2019-06-01T12:50:23.650Z,3.62
2019-06-01T12:52:53.076Z,6.03
2019-06-01T12:55:22.249Z,3.00
2019-06-01T12:57:51.496Z,3.05
2019-06-01T13:00:21.998Z,5.20
2019-06-01T13:03:03.358Z,4.60
2019-06-01T13:05:22.045Z,5.70
2019-06-01T13:08:00.708Z,6.10
2019-06-01T13:10:22.493Z,4.90
2019-06-01T13:12:52.438Z,4.58
2019-06-01T13:15:22.135Z,4.37
2019-06-01T13:17:51.580Z,4.83
2019-06-01T13:20:20.787Z,5.42
2019-06-01T13:22:50.096Z,5.78
2019-06-01T13:25:19.386Z,2.85
2019-06-01T13:27:48.946Z,6.10
2019-06-01T13:30:18.785Z,4.47
2019-06-01T13:32:48.550Z,5.70
2019-06-01T13:35:18.527Z,6.80
2019-06-01T13:37:48.835Z,4.17
2019-06-01T13:40:18.194Z,4.45
2019-06-01T13:42:47.437Z,4.58
2019-06-01T13:45:16.560Z,4.90
2019-06-01T13:47:45.834Z,4.10
2019-06-01T13:50:15.091Z,3.45
2019-06-01T13:52:44.291Z,6.37
2019-06-01T13:55:13.729Z,4.12
2019-06-01T13:57:44.107Z,5.12
2019-06-01T14:00:15.863Z,6.20
2019-06-01T14:02:49.017Z,4.47
2019-06-01T14:05:15.780Z,5.05
2019-06-01T14:07:45.473Z,4.42
2019-06-01T14:10:15.349Z,5.12
2019-06-01T14:12:45.271Z,6.55
2019-06-01T14:15:15.405Z,4.75
2019-06-01T14:17:45.907Z,6.00
2019-06-01T14:20:15.945Z,4.72
2019-06-01T14:22:45.751Z,3.98
2019-06-01T14:25:15.514Z,4.78
2019-06-01T14:27:46.095Z,7.25
2019-06-01T14:30:16.059Z,4.15
2019-06-01T14:32:46.200Z,6.17
2019-06-01T14:35:16.246Z,5.25
2019-06-01T14:37:46.645Z,6.97
2019-06-01T14:40:16.282Z,5.42
2019-06-01T14:42:46.761Z,5.78
2019-06-01T14:45:16.270Z,5.92
2019-06-01T14:47:45.393Z,4.20
2019-06-01T14:50:16.204Z,4.85
2019-06-01T14:52:45.423Z,5.03
2019-06-01T14:55:14.591Z,5.10
2019-06-01T14:57:43.824Z,5.80
2019-06-01T15:00:14.796Z,5.33
2019-06-01T15:02:43.966Z,5.03
2019-06-01T15:05:13.272Z,6.35
2019-06-01T15:07:42.433Z,6.58
2019-06-01T15:10:12.394Z,7.45
2019-06-01T15:12:41.650Z,7.45
2019-06-01T15:15:12.422Z,6.62
2019-06-01T15:17:41.658Z,6.83
2019-06-01T15:20:11.067Z,7.25
2019-06-01T15:22:40.291Z,8.65
2019-06-01T15:25:10.439Z,6.25
2019-06-01T15:27:40.351Z,5.75
2019-06-01T15:30:12.571Z,6.83
2019-06-01T15:32:41.768Z,11.85
2019-06-01T15:35:11.860Z,11.75
2019-06-01T15:37:42.377Z,9.60
2019-06-01T15:40:11.835Z,9.38
2019-06-01T15:42:40.970Z,5.95
2019-06-01T15:45:11.109Z,8.75
2019-06-01T15:47:40.285Z,12.70
2019-06-01T15:50:10.150Z,9.25
2019-06-01T15:52:39.434Z,7.75
2019-06-01T15:55:09.262Z,7.40
2019-06-01T15:57:38.470Z,8.78
2019-06-01T16:00:08.971Z,7.40
2019-06-01T16:02:38.189Z,8.15
2019-06-01T16:05:07.991Z,8.60
2019-06-01T16:07:37.166Z,8.20
2019-06-01T16:10:08.425Z,8.20
2019-06-01T16:12:37.442Z,8.05
2019-06-01T16:15:08.598Z,5.95
2019-06-01T16:17:37.898Z,6.70
2019-06-01T16:20:07.635Z,10.03
2019-06-01T16:22:36.844Z,8.03
2019-06-01T16:25:06.160Z,8.43
2019-06-01T16:27:35.314Z,7.65
2019-06-01T16:30:05.656Z,7.55
2019-06-01T16:32:39.090Z,6.03
2019-06-01T16:35:05.969Z,8.65
2019-06-01T16:37:35.410Z,20.80
2019-06-01T16:40:09.628Z,11.57
2019-06-01T16:42:35.755Z,9.60
2019-06-01T16:45:05.737Z,10.25
2019-06-01T16:47:35.254Z,11.73
2019-06-01T16:50:05.827Z,10.03
2019-06-01T16:52:35.788Z,7.80
2019-06-01T16:55:07.144Z,11.12
2019-06-01T16:57:36.913Z,9.28
2019-06-01T17:00:08.287Z,10.10
2019-06-01T17:02:37.425Z,10.60
2019-06-01T17:05:07.700Z,8.93
2019-06-01T17:07:36.985Z,8.73
2019-06-01T17:10:21.627Z,9.23
2019-06-01T17:12:43.017Z,11.22
2019-06-01T17:15:09.675Z,12.58
2019-06-01T17:17:38.965Z,12.10
2019-06-01T17:20:14.030Z,11.45
2019-06-01T17:22:43.203Z,12.05
2019-06-01T17:25:12.494Z,9.68
2019-06-01T17:27:41.730Z,11.48
2019-06-01T17:30:12.151Z,8.65
2019-06-01T17:32:41.767Z,10.20
2019-06-01T17:35:10.947Z,8.65
2019-06-01T17:37:40.528Z,9.58
2019-06-01T17:40:09.811Z,8.63
2019-06-01T17:42:41.094Z,8.43
2019-06-01T17:45:10.236Z,10.70
2019-06-01T17:47:40.863Z,9.68
2019-06-01T17:50:11.711Z,8.95
2019-06-01T17:52:41.015Z,9.83
2019-06-01T17:55:10.177Z,11.50
2019-06-01T17:57:39.316Z,7.80
2019-06-01T18:00:11.669Z,9.13
2019-06-01T18:02:41.582Z,8.80
2019-06-01T18:05:11.940Z,9.38
2019-06-01T18:07:41.365Z,9.90
2019-06-01T18:10:10.662Z,10.28
2019-06-01T18:12:39.816Z,11.55
2019-06-01T18:15:10.205Z,7.87
2019-06-01T18:17:39.916Z,8.73
2019-06-01T18:20:09.275Z,7.03
2019-06-01T18:22:38.971Z,9.08
2019-06-01T18:25:10.494Z,7.30
2019-06-01T18:27:40.441Z,6.85
2019-06-01T18:30:11.106Z,9.10
2019-06-01T18:32:40.355Z,8.45
2019-06-01T18:35:09.520Z,9.73
2019-06-01T18:37:38.689Z,7.43
2019-06-01T18:40:09.818Z,7.03
2019-06-01T18:42:39.709Z,10.60
2019-06-01T18:45:11.802Z,9.00
2019-06-01T18:47:41.868Z,6.47
2019-06-01T18:50:14.712Z,9.37
2019-06-01T18:52:42.439Z,11.53
2019-06-01T18:55:12.656Z,10.37
2019-06-01T18:57:44.955Z,9.40
2019-06-01T19:00:15.733Z,8.47
2019-06-01T19:02:45.615Z,8.63
2019-06-01T19:05:15.971Z,9.77
2019-06-01T19:07:45.479Z,8.60
2019-06-01T19:10:16.146Z,9.17
2019-06-01T19:12:45.920Z,11.07
2019-06-01T19:15:27.522Z,13.20
2019-06-01T19:17:49.388Z,11.40
2019-06-01T19:20:21.507Z,12.57
2019-06-01T19:22:51.022Z,12.80
2019-06-01T19:25:20.763Z,12.27
2019-06-01T19:27:50.024Z,11.03
2019-06-01T19:30:49.296Z,9.50
2019-06-01T19:33:19.541Z,9.20
2019-06-01T19:35:50.033Z,8.93
2019-06-01T19:38:21.187Z,15.90
2019-06-01T19:40:52.721Z,10.23
2019-06-01T19:43:22.753Z,8.83
2019-06-01T19:45:52.242Z,9.30
2019-06-01T19:48:21.436Z,10.00
2019-06-01T19:50:50.567Z,9.60
2019-06-01T19:53:19.757Z,12.47
2019-06-01T19:55:49.025Z,16.53
2019-06-01T19:58:19.133Z,12.33
2019-06-01T20:00:49.642Z,10.47
2019-06-01T20:03:22.022Z,9.07
2019-06-01T20:05:51.152Z,7.97
2019-06-01T20:08:20.570Z,9.13
2019-06-01T20:10:49.893Z,7.07
2019-06-01T20:13:19.274Z,8.03
2019-06-01T20:15:48.659Z,9.03
2019-06-01T20:18:19.085Z,10.07
2019-06-01T20:20:51.146Z,11.33
2019-06-01T20:23:21.981Z,9.63
2019-06-01T20:25:51.250Z,10.17
2019-06-01T20:28:21.585Z,10.43
2019-06-01T20:30:51.889Z,10.23
2019-06-01T20:33:23.498Z,13.13
2019-06-01T20:35:52.830Z,9.70
2019-06-01T20:38:23.364Z,10.83
2019-06-01T20:40:54.121Z,11.87
2019-06-01T20:43:27.641Z,10.87
2019-06-01T20:45:57.281Z,10.87
2019-06-01T20:48:26.527Z,10.43
2019-06-01T20:50:55.649Z,16.30
2019-06-01T20:53:25.171Z,10.60
2019-06-01T20:55:54.393Z,12.73
2019-06-01T20:58:24.791Z,12.63
2019-06-01T21:00:54.365Z,10.50
2019-06-01T21:03:24.305Z,11.53
2019-06-01T21:05:54.412Z,13.43
2019-06-01T21:08:24.235Z,13.33
2019-06-01T21:10:53.563Z,13.30
2019-06-01T21:13:22.769Z,12.07
2019-06-01T21:15:52.180Z,13.20
2019-06-01T21:18:22.534Z,14.13
2019-06-01T21:20:52.135Z,10.93
2019-06-01T21:23:21.285Z,11.53
2019-06-01T21:25:50.823Z,12.83
2019-06-01T21:28:22.086Z,15.77
2019-06-01T21:30:51.684Z,12.57
2019-06-01T21:33:21.701Z,13.70
2019-06-01T21:35:51.810Z,13.90
2019-06-01T21:38:21.393Z,13.47
2019-06-01T21:40:50.667Z,13.67
2019-06-01T21:43:31.921Z,12.13
2019-06-01T21:45:50.867Z,13.50
2019-06-01T21:48:20.029Z,14.07
2019-06-01T21:50:49.324Z,13.83
2019-06-01T21:53:19.818Z,12.10
2019-06-01T21:55:49.355Z,13.27
2019-06-01T21:58:18.882Z,14.33
2019-06-01T22:00:49.587Z,13.60
2019-06-01T22:03:19.146Z,11.27
2019-06-01T22:05:49.361Z,14.77
2019-06-01T22:08:19.136Z,15.07
2019-06-01T22:10:48.889Z,12.73
2019-06-01T22:13:22.006Z,15.77
2019-06-01T22:15:49.163Z,15.87
2019-06-01T22:18:19.480Z,15.57
2019-06-01T22:20:49.927Z,12.37
2019-06-01T22:23:19.732Z,13.37
2019-06-01T22:25:49.220Z,16.73
2019-06-01T22:28:18.446Z,14.33
2019-06-01T22:30:47.700Z,14.07
2019-06-01T22:33:16.837Z,13.27
2019-06-01T22:35:46.109Z,14.90
2019-06-01T22:38:15.281Z,14.47
2019-06-01T22:40:44.451Z,15.27
2019-06-01T22:43:13.701Z,12.17
2019-06-01T22:45:42.952Z,13.40
2019-06-01T22:48:12.181Z,13.73
2019-06-01T22:50:41.315Z,15.60
2019-06-01T22:53:10.556Z,12.60
2019-06-01T22:55:39.697Z,14.23
2019-06-01T22:58:08.848Z,15.03
2019-06-01T23:00:38.062Z,16.27
2019-06-01T23:03:07.274Z,17.20
2019-06-01T23:05:36.534Z,13.93
2019-06-01T23:08:05.778Z,11.20
2019-06-01T23:10:35.613Z,13.93
2019-06-01T23:13:05.392Z,16.60
2019-06-01T23:15:34.580Z,15.13
2019-06-01T23:18:03.895Z,14.23
2019-06-01T23:20:33.498Z,13.53
2019-06-01T23:23:02.671Z,14.03
2019-06-01T23:25:32.657Z,16.63
2019-06-01T23:28:01.930Z,15.03
2019-06-01T23:30:32.385Z,14.57
2019-06-01T23:33:01.629Z,14.37
2019-06-01T23:35:31.231Z,12.83
2019-06-01T23:38:00.485Z,11.73
2019-06-01T23:40:30.737Z,12.37
2019-06-01T23:43:00.484Z,13.17
2019-06-01T23:45:30.859Z,14.20
2019-06-01T23:48:00.908Z,14.63
2019-06-01T23:50:30.085Z,13.77
2019-06-01T23:53:12.797Z,15.63
2019-06-01T23:55:31.756Z,21.23
2019-06-01T23:58:01.607Z,13.97
